Time;durP1;ratioP1;P1;durP2;ratioP2;P2;SDS_P1;SDS_P2;PMS_P1;PMS_P2;Temp;Humidity;BMP_temperature;BMP_pressure;BME280_temperature;BME280_humidity;BME280_pressure;Samples;Min_cycle;Max_cycle;Signal;HPM_P1;HPM_P2
2023/04/15 00:01:18;;;;;;;1.83;1.15;;;;;;;1.90;27.32;100352.31;7348161;19;20019;-67
2023/04/15 00:03:45;;;;;;;2.10;1.85;;;;;;;1.71;27.30;100350.13;7345259;19;20018;-65
2023/04/15 00:06:09;;;;;;;2.47;0.70;;;;;;;1.81;27.29;100364.78;7345506;19;20022;-66
2023/04/15 00:08:37;;;;;;;1.08;1.00;;;;;;;1.86;27.15;100359.41;7344283;19;20010;-67
2023/04/15 00:11:04;;;;;;;3.03;1.38;;;;;;;1.83;27.08;100362.97;7346513;19;20007;-66
2023/04/15 00:13:39;;;;;;;3.13;1.73;;;;;;;1.64;27.53;100353.81;7348121;19;20027;-66
2023/04/15 00:16:05;;;;;;;2.25;1.65;;;;;;;1.63;27.54;100374.88;7348338;19;20106;-66
2023/04/15 00:18:34;;;;;;;4.60;1.60;;;;;;;1.60;27.48;100362.66;7348285;19;20022;-66
2023/04/15 00:21:05;;;;;;;2.95;1.45;;;;;;;1.45;27.47;100386.69;7348996;19;20042;-65
2023/04/15 00:23:35;;;;;;;4.55;1.20;;;;;;;1.74;27.40;100384.22;7348896;19;20045;-69
2023/04/15 00:28:37;;;;;;;3.33;1.60;;;;;;;1.41;27.83;100379.75;7345059;19;20029;-66
2023/04/15 00:31:02;;;;;;;2.65;1.65;;;;;;;1.25;27.89;100379.22;7346757;19;20074;-67
2023/04/15 00:36:04;;;;;;;5.10;1.45;;;;;;;1.48;27.68;100383.09;7346754;19;20018;-70
2023/04/15 00:38:30;;;;;;;2.20;0.95;;;;;;;1.46;27.70;100385.78;7343497;19;20018;-67
2023/04/15 00:41:04;;;;;;;4.20;1.75;;;;;;;1.29;28.05;100385.28;7344991;19;20014;-68
2023/04/15 00:43:42;;;;;;;6.28;1.98;;;;;;;1.14;28.07;100394.34;7345601;19;20046;-68
2023/04/15 00:46:10;;;;;;;3.13;1.70;;;;;;;1.33;27.84;100407.97;7344594;19;20029;-69
2023/04/15 00:48:35;;;;;;;2.17;1.30;;;;;;;1.42;27.75;100394.63;7342966;19;20021;-69
2023/04/15 00:51:13;;;;;;;2.50;1.30;;;;;;;1.45;27.88;100416.44;7342751;19;20011;-69
2023/04/15 00:53:38;;;;;;;2.30;1.60;;;;;;;1.20;28.20;100407.38;7342609;19;20019;-67
2023/04/15 00:56:03;;;;;;;3.13;1.27;;;;;;;1.09;28.25;100409.34;7345542;19;20018;-68
2023/04/15 00:58:28;;;;;;;4.55;1.13;;;;;;;0.97;28.62;100423.59;7343848;19;20018;-69
2023/04/15 01:00:55;;;;;;;2.88;1.75;;;;;;;0.93;28.51;100418.41;7343957;19;20018;-68
2023/04/15 01:03:20;;;;;;;6.43;1.88;;;;;;;1.04;28.27;100417.31;7343979;19;20030;-66
2023/04/15 01:05:50;;;;;;;2.92;1.27;;;;;;;0.90;28.71;100415.88;7343862;19;20017;-68
2023/04/15 01:08:28;;;;;;;2.50;1.60;;;;;;;1.11;28.56;100430.31;7342351;19;20024;-76
2023/04/15 01:10:56;;;;;;;0.75;0.75;;;;;;;1.23;28.39;100416.94;7342266;19;20014;-70
2023/04/15 01:13:25;;;;;;;1.77;1.35;;;;;;;1.16;28.52;100424.06;7343090;19;20023;-70
2023/04/15 01:15:51;;;;;;;2.63;2.08;;;;;;;1.01;28.49;100427.91;7343144;19;20469;-71
2023/04/15 01:18:23;;;;;;;2.47;1.77;;;;;;;0.88;28.83;100431.66;7345513;19;20082;-76
2023/04/15 01:20:53;;;;;;;4.32;1.85;;;;;;;0.74;29.01;100428.41;7343076;19;20024;-66
2023/04/15 01:23:22;;;;;;;2.95;1.77;;;;;;;0.74;29.00;100433.66;7344301;19;20014;-65
2023/04/15 01:25:49;;;;;;;1.42;1.23;;;;;;;0.90;28.99;100448.25;7343636;19;20011;-69
2023/04/15 01:28:14;;;;;;;2.58;1.45;;;;;;;0.84;28.95;100435.22;7342011;19;20038;-69
2023/04/15 01:33:10;;;;;;;5.40;2.00;;;;;;;1.18;28.38;100440.66;7340652;19;20019;-68
2023/04/15 01:35:59;;;;;;;2.97;1.88;;;;;;;1.08;28.90;100450.50;7341886;19;20025;-69
2023/04/15 01:38:31;;;;;;;3.30;1.90;;;;;;;0.88;29.12;100451.78;7345573;19;20015;-65
2023/04/15 01:40:58;;;;;;;3.15;1.80;;;;;;;0.65;29.41;100444.34;7340899;19;20102;-64
2023/04/15 01:43:28;;;;;;;1.35;0.85;;;;;;;0.81;29.26;100453.66;7343102;19;20021;-66
2023/04/15 01:45:58;;;;;;;3.75;1.95;;;;;;;0.74;29.38;100462.53;7341100;19;20263;-67
2023/04/15 01:48:23;;;;;;;2.03;1.30;;;;;;;0.86;29.36;100456.19;7343198;19;20034;-67
2023/04/15 01:50:48;;;;;;;2.20;1.25;;;;;;;0.90;29.16;100464.00;7341406;19;20477;-68
2023/04/15 01:53:15;;;;;;;0.50;0.50;;;;;;;0.88;29.11;100443.91;7344720;19;20453;-65
2023/04/15 01:55:50;;;;;;;3.28;1.70;;;;;;;0.63;29.43;100469.75;7344231;19;20022;-66
2023/04/15 01:58:27;;;;;;;3.33;1.80;;;;;;;0.64;29.75;100472.34;7342553;19;20442;-66
2023/04/15 02:00:57;;;;;;;2.60;2.20;;;;;;;0.60;29.67;100480.28;7342592;19;20026;-63
2023/04/15 02:03:24;;;;;;;4.80;1.50;;;;;;;0.68;29.61;100475.75;7346381;19;20473;-67
2023/04/15 02:05:50;;;;;;;1.55;1.45;;;;;;;0.66;29.52;100490.69;7338955;19;20032;-64
2023/04/15 02:08:17;;;;;;;0.65;0.63;;;;;;;0.85;29.30;100481.56;7338450;19;20398;-63
2023/04/15 02:10:42;;;;;;;1.98;1.10;;;;;;;0.72;29.36;100485.31;7341146;19;20025;-63
2023/04/15 02:13:06;;;;;;;2.35;1.80;;;;;;;0.57;29.65;100489.06;7339562;19;20011;-65
2023/04/15 02:15:33;;;;;;;4.03;2.70;;;;;;;0.49;29.79;100495.34;7345037;19;20330;-65
2023/04/15 02:17:59;;;;;;;3.65;2.20;;;;;;;0.38;29.93;100487.66;7344013;19;20071;-63
2023/04/15 02:20:26;;;;;;;3.40;1.63;;;;;;;0.32;30.07;100491.25;7343600;19;20569;-63
2023/04/15 02:22:51;;;;;;;4.57;2.35;;;;;;;0.40;29.97;100492.88;7344213;19;20022;-64
2023/04/15 02:25:16;;;;;;;2.33;1.13;;;;;;;0.50;29.77;100492.69;7341730;19;20026;-65
2023/04/15 02:27:40;;;;;;;4.22;1.88;;;;;;;0.70;29.35;100502.84;7337419;19;20014;-65
2023/04/15 02:30:06;;;;;;;2.55;1.80;;;;;;;0.55;29.73;100497.88;7340695;19;20010;-63
2023/04/15 02:32:36;;;;;;;4.22;2.45;;;;;;;0.39;29.89;100499.88;7339266;19;20018;-67
2023/04/15 02:35:07;;;;;;;3.60;1.88;;;;;;;0.35;30.00;100498.19;7339737;19;20480;-63
2023/04/15 02:37:42;;;;;;;5.07;1.98;;;;;;;0.29;30.06;100509.66;7340586;19;20351;-65
2023/04/15 02:40:17;;;;;;;2.97;1.75;;;;;;;0.28;30.04;100518.41;7339189;19;20022;-65
2023/04/15 02:42:43;;;;;;;2.55;1.70;;;;;;;0.20;29.95;100515.06;7339719;19;20023;-65
2023/04/15 02:45:11;;;;;;;2.45;1.58;;;;;;;0.13;30.13;100523.00;7339579;19;20551;-64
2023/04/15 02:47:40;;;;;;;2.17;1.25;;;;;;;0.19;30.05;100526.44;7341752;19;20050;-64
2023/04/15 02:50:07;;;;;;;6.28;1.52;;;;;;;0.50;29.70;100536.44;7343158;19;20784;-64
2023/04/15 02:52:32;;;;;;;5.35;2.35;;;;;;;0.42;29.97;100528.69;7347339;19;20014;-62
2023/04/15 02:55:01;;;;;;;8.57;2.80;;;;;;;0.36;29.88;100540.13;7337852;19;20587;-62
2023/04/15 02:57:28;;;;;;;3.13;1.85;;;;;;;0.40;29.88;100540.09;7340852;19;20018;-62
2023/04/15 02:59:59;;;;;;;4.78;2.00;;;;;;;0.57;29.56;100538.91;7346508;19;20466;-64
2023/04/15 03:04:57;;;;;;;3.58;2.38;;;;;;;0.63;29.68;100551.06;7354144;19;20009;-66
2023/04/15 03:07:23;;;;;;;3.80;1.30;;;;;;;0.71;29.53;100546.56;7348667;19;20074;-68
2023/04/15 03:09:51;;;;;;;3.58;2.03;;;;;;;0.54;29.67;100543.38;7342653;19;20098;-68
2023/04/15 03:12:17;;;;;;;4.88;2.15;;;;;;;0.34;30.20;100557.66;7346583;19;20014;-66
2023/04/15 03:14:42;;;;;;;2.47;1.75;;;;;;;0.27;29.98;100553.41;7341581;19;20050;-70
2023/04/15 03:17:08;;;;;;;4.55;1.98;;;;;;;0.41;30.03;100565.44;7340908;19;20014;-69
2023/04/15 03:19:34;;;;;;;3.13;1.83;;;;;;;0.48;29.78;100561.81;7344744;19;20019;-70
2023/04/15 03:22:05;;;;;;;1.95;1.45;;;;;;;0.43;29.99;100553.16;7340106;19;20007;-71
2023/04/15 03:24:30;;;;;;;3.42;1.85;;;;;;;0.65;29.72;100554.56;7338654;19;20345;-70
2023/04/15 03:27:00;;;;;;;1.60;1.20;;;;;;;0.65;29.49;100551.94;7338137;19;20031;-72
2023/04/15 03:29:31;;;;;;;7.82;2.35;;;;;;;0.51;29.77;100574.88;7340985;19;20019;-72
2023/04/15 03:31:55;;;;;;;1.45;1.35;;;;;;;0.55;29.77;100561.72;7339414;19;20026;-74
2023/04/15 03:34:23;;;;;;;2.28;1.38;;;;;;;0.80;29.60;100566.53;7337465;19;20011;-74
2023/04/15 03:36:47;;;;;;;4.82;2.28;;;;;;;0.93;29.25;100562.81;7338700;19;20579;-73
2023/04/15 03:39:12;;;;;;;5.45;2.50;;;;;;;0.73;29.54;100579.75;7339623;19;20481;-72
2023/04/15 03:41:39;;;;;;;1.92;1.58;;;;;;;0.74;29.66;100572.75;7342734;19;20018;-70
2023/04/15 03:44:06;;;;;;;2.53;1.40;;;;;;;0.85;29.41;100590.94;7346152;19;20023;-70
2023/04/15 03:46:34;;;;;;;5.38;2.42;;;;;;;0.83;29.67;100585.72;7341185;19;20026;-74
2023/04/15 03:49:02;;;;;;;5.13;2.33;;;;;;;0.93;29.53;100583.81;7345728;19;20022;-70
2023/04/15 03:51:27;;;;;;;7.72;2.13;;;;;;;1.02;29.56;100587.13;7346036;19;20002;-75
2023/04/15 03:53:51;;;;;;;1.65;1.38;;;;;;;1.26;29.29;100588.44;7343203;19;20046;-75
2023/04/15 03:56:17;;;;;;;8.05;1.73;;;;;;;1.27;29.06;100581.44;7340307;19;20074;-73
2023/04/15 03:58:41;;;;;;;2.72;1.52;;;;;;;1.43;28.70;100594.28;7339314;19;20019;-76
2023/04/15 04:01:07;;;;;;;4.78;2.22;;;;;;;1.15;29.06;100579.03;7339250;19;20062;-73
2023/04/15 04:03:38;;;;;;;2.20;1.85;;;;;;;1.38;28.94;100593.47;7341433;19;20018;-75
2023/04/15 04:06:05;;;;;;;3.55;2.00;;;;;;;1.39;29.07;100581.22;7339204;19;20014;-70
2023/04/15 04:08:32;;;;;;;4.90;2.10;;;;;;;1.49;28.97;100589.78;7338535;19;20046;-72
2023/04/15 04:10:58;;;;;;;5.15;2.67;;;;;;;1.69;28.54;100588.47;7340952;19;20017;-70
2023/04/15 04:13:27;;;;;;;2.22;2.03;;;;;;;1.96;28.24;100591.44;7342385;19;20417;-69
2023/04/15 04:15:53;;;;;;;0.88;0.80;;;;;;;2.06;28.14;100585.94;7341684;19;20364;-71
2023/04/15 04:18:19;;;;;;;4.20;2.20;;;;;;;2.09;28.28;100591.16;7343161;19;20011;-69
2023/04/15 04:20:44;;;;;;;5.15;2.47;;;;;;;2.35;28.00;100590.59;7337212;19;20021;-70
2023/04/15 04:23:08;;;;;;;4.00;2.03;;;;;;;2.55;27.36;100592.75;7338691;19;20366;-68
2023/04/15 04:25:33;;;;;;;6.75;2.17;;;;;;;2.45;27.52;100594.72;7339315;19;20046;-70
2023/04/15 04:28:00;;;;;;;4.22;2.20;;;;;;;2.37;27.75;100594.00;7336078;19;20342;-69
2023/04/15 04:30:29;;;;;;;2.08;1.75;;;;;;;2.77;27.51;100600.97;7348483;19;20014;-73
2023/04/15 04:32:56;;;;;;;3.42;2.20;;;;;;;2.74;27.33;100603.69;7342994;19;20506;-69
2023/04/15 04:35:23;;;;;;;4.57;2.03;;;;;;;2.75;27.65;100594.88;7343989;19;20398;-69
2023/04/15 04:37:48;;;;;;;3.03;2.20;;;;;;;3.00;27.37;100598.66;7347390;19;20115;-70
2023/04/15 04:40:13;;;;;;;4.70;2.30;;;;;;;3.16;27.03;100602.59;7347196;19;20014;-70
2023/04/15 04:42:45;;;;;;;4.65;2.35;;;;;;;3.23;26.90;100603.31;7343400;19;20044;-69
2023/04/15 04:45:12;;;;;;;2.70;1.75;;;;;;;3.24;27.00;100597.16;7344293;19;20037;-70
2023/04/15 04:47:40;;;;;;;5.20;2.70;;;;;;;3.18;26.68;100595.53;7343456;19;20028;-69
2023/04/15 04:50:07;;;;;;;3.63;2.05;;;;;;;3.12;26.82;100608.88;7344351;19;20370;-70
2023/04/15 04:52:32;;;;;;;3.20;2.00;;;;;;;2.99;27.11;100604.81;7347338;19;20021;-71
2023/04/15 04:54:57;;;;;;;4.43;1.70;;;;;;;3.03;27.00;100605.63;7343222;19;20014;-71
2023/04/15 04:57:26;;;;;;;14.07;2.65;;;;;;;2.95;27.29;100611.06;7345264;19;20018;-70
2023/04/15 04:59:56;;;;;;;15.48;3.25;;;;;;;2.83;27.43;100604.31;7344633;19;20770;-69
2023/04/15 05:02:21;;;;;;;2.15;1.70;;;;;;;2.74;27.52;100603.69;7343805;19;20513;-72
2023/04/15 05:04:45;;;;;;;2.65;1.60;;;;;;;2.90;27.31;100595.38;7344639;19;20461;-72
2023/04/15 05:07:10;;;;;;;1.42;1.10;;;;;;;2.95;27.16;100591.75;7343153;19;20011;-72
2023/04/15 05:09:38;;;;;;;4.53;1.73;;;;;;;2.85;27.64;100599.03;7350266;19;20007;-70
2023/04/15 05:12:08;;;;;;;10.57;2.53;;;;;;;2.98;27.54;100603.09;7359416;19;20496;-71
2023/04/15 05:14:32;;;;;;;5.60;2.75;;;;;;;3.37;27.23;100608.22;7355284;19;20018;-71
2023/04/15 05:16:59;;;;;;;7.22;2.45;;;;;;;3.68;26.76;100611.75;7359031;19;20017;-70
2023/04/15 05:19:29;;;;;;;7.15;2.35;;;;;;;3.95;26.39;100612.75;7351361;19;20342;-71
2023/04/15 05:21:53;;;;;;;2.08;1.88;;;;;;;4.26;26.08;100605.66;7344993;19;20034;-71
2023/04/15 05:24:18;;;;;;;4.88;1.95;;;;;;;4.25;26.03;100611.84;7344518;19;20018;-71
2023/04/15 05:26:44;;;;;;;2.25;1.52;;;;;;;4.54;25.91;100613.56;7343205;19;20095;-71
2023/04/15 05:29:10;;;;;;;4.70;2.95;;;;;;;4.60;25.62;100605.47;7345142;19;20015;-71
2023/04/15 05:31:41;;;;;;;6.85;1.98;;;;;;;5.00;25.75;100602.38;7344572;19;20090;-69
2023/04/15 05:34:08;;;;;;;5.78;2.65;;;;;;;5.85;25.32;100606.47;7341635;19;20039;-70
2023/04/15 05:36:34;;;;;;;2.95;1.70;;;;;;;6.52;24.57;100612.72;7342084;19;20495;-70
2023/04/15 05:38:59;;;;;;;4.03;1.92;;;;;;;6.60;23.95;100614.19;7343838;19;20477;-69
2023/04/15 05:41:26;;;;;;;6.03;3.88;;;;;;;6.47;24.08;100621.75;7339470;19;20010;-71
2023/04/15 05:43:55;;;;;;;8.52;2.55;;;;;;;6.59;23.87;100623.94;7343995;19;20113;-72
2023/04/15 05:46:27;;;;;;;6.85;2.15;;;;;;;6.64;23.69;100606.09;7343601;19;20022;-71
2023/04/15 05:48:52;;;;;;;6.13;2.38;;;;;;;6.92;23.91;100609.31;7342246;19;20014;-69
2023/04/15 05:51:18;;;;;;;4.45;3.63;;;;;;;7.51;23.26;100605.94;7342940;19;20034;-70
2023/04/15 05:53:45;;;;;;;6.88;2.63;;;;;;;7.96;22.77;100613.66;7342520;19;20025;-70
2023/04/15 05:58:46;;;;;;;6.60;3.22;;;;;;;8.85;22.43;100607.69;7345011;19;20344;-66
2023/04/15 06:01:17;;;;;;;6.40;2.55;;;;;;;9.26;22.04;100607.41;7345405;19;20010;-68
2023/04/15 06:03:42;;;;;;;9.45;3.10;;;;;;;9.48;21.56;100613.38;7342368;19;20022;-69
2023/04/15 06:06:14;;;;;;;8.68;3.45;;;;;;;9.59;21.72;100604.84;7343751;19;20102;-70
2023/04/15 06:08:42;;;;;;;9.15;4.70;;;;;;;9.50;21.47;100618.63;7341302;19;20090;-69
2023/04/15 06:11:09;;;;;;;3.78;2.95;;;;;;;9.62;21.53;100617.97;7342205;19;20093;-68
2023/04/15 06:13:36;;;;;;;6.45;2.53;;;;;;;9.42;21.14;100617.22;7342809;19;20473;-71
2023/04/15 06:16:02;;;;;;;6.82;2.20;;;;;;;9.44;21.20;100625.13;7343074;19;20002;-68
2023/04/15 06:18:30;;;;;;;6.47;2.70;;;;;;;8.83;21.45;100625.50;7345728;19;20019;-70
2023/04/15 06:20:56;;;;;;;5.50;2.40;;;;;;;8.73;21.56;100625.09;7344931;19;20026;-68
2023/04/15 06:23:26;;;;;;;6.78;3.78;;;;;;;8.82;21.64;100626.44;7340315;19;20013;-69
2023/04/15 06:25:51;;;;;;;9.63;2.83;;;;;;;9.19;21.19;100628.16;7340513;19;20086;-69
2023/04/15 06:28:18;;;;;;;4.13;1.80;;;;;;;9.70;20.91;100614.00;7342985;19;20022;-69
2023/04/15 06:30:43;;;;;;;11.40;3.00;;;;;;;9.49;20.58;100615.09;7346404;19;20018;-68
2023/04/15 06:33:08;;;;;;;6.00;2.65;;;;;;;9.94;20.45;100621.59;7340892;19;20010;-70
2023/04/15 06:35:34;;;;;;;5.15;1.67;;;;;;;10.00;20.39;100629.28;7341629;19;20007;-68
2023/04/15 06:37:59;;;;;;;4.38;3.05;;;;;;;9.60;20.51;100615.38;7340430;19;20485;-70
2023/04/15 06:40:25;;;;;;;10.52;3.03;;;;;;;9.82;20.37;100628.44;7341991;19;20358;-70
2023/04/15 06:42:50;;;;;;;6.35;2.50;;;;;;;10.04;20.41;100628.19;7346506;19;20022;-72
2023/04/15 06:45:18;;;;;;;6.00;2.70;;;;;;;10.32;20.49;100628.44;7341520;19;20017;-72
2023/04/15 06:47:47;;;;;;;3.95;2.53;;;;;;;11.04;19.75;100627.94;7342010;19;20014;-72
2023/04/15 06:50:25;;;;;;;7.10;2.83;;;;;;;11.83;19.52;100622.38;7343330;19;20081;-73
2023/04/15 06:52:50;;;;;;;2.38;2.17;;;;;;;12.62;18.86;100639.63;7344673;19;20434;-70
2023/04/15 06:57:52;;;;;;;3.35;2.25;;;;;;;14.27;17.32;100618.59;7346984;19;20014;-74
2023/04/15 07:00:21;;;;;;;4.78;2.25;;;;;;;14.51;17.29;100626.75;7340105;19;20027;-71
2023/04/15 07:02:48;;;;;;;5.05;3.10;;;;;;;14.39;17.13;100632.94;7341738;19;20086;-71
2023/04/15 07:05:13;;;;;;;6.30;2.50;;;;;;;14.76;16.99;100632.03;7339659;19;20011;-72
2023/04/15 07:07:37;;;;;;;4.47;2.72;;;;;;;14.45;16.74;100619.13;7341324;19;20010;-70
2023/04/15 07:10:04;;;;;;;8.25;2.55;;;;;;;14.36;17.04;100635.84;7339670;19;20014;-69
2023/04/15 07:12:37;;;;;;;8.50;3.75;;;;;;;14.43;17.48;100619.25;7341029;19;20397;-70
2023/04/15 07:17:39;;;;;;;6.65;3.15;;;;;;;15.43;16.56;100618.09;7343111;19;20018;-72
2023/04/15 07:20:05;;;;;;;6.50;2.70;;;;;;;15.84;16.17;100620.31;7344362;19;20078;-71
2023/04/15 07:22:34;;;;;;;5.82;2.45;;;;;;;15.84;16.12;100617.63;7341635;19;20011;-71
2023/04/15 07:25:05;;;;;;;3.47;2.28;;;;;;;15.84;16.42;100625.69;7339824;19;20027;-69
2023/04/15 07:27:38;;;;;;;4.95;2.28;;;;;;;15.74;16.20;100625.56;7340071;19;20078;-70
2023/04/15 07:30:15;;;;;;;8.23;2.22;;;;;;;15.88;16.24;100624.47;7339852;19;20029;-71
2023/04/15 07:32:53;;;;;;;4.32;2.75;;;;;;;15.54;15.86;100627.09;7341671;19;20113;-71
2023/04/15 07:35:20;;;;;;;7.20;2.70;;;;;;;15.11;15.67;100613.34;7336937;19;20019;-70
2023/04/15 07:37:50;;;;;;;7.72;3.13;;;;;;;15.01;16.06;100614.13;7341023;19;20573;-71
2023/04/15 07:40:16;;;;;;;8.50;3.13;;;;;;;15.00;15.89;100628.53;7339843;19;20022;-70
2023/04/15 07:42:42;;;;;;;4.80;2.60;;;;;;;15.02;15.69;100627.41;7339854;19;20786;-70
2023/04/15 07:45:08;;;;;;;7.45;3.03;;;;;;;15.06;15.70;100617.31;7340053;19;20050;-69
2023/04/15 07:47:34;;;;;;;5.57;3.17;;;;;;;15.48;15.71;100621.28;7338346;19;20010;-72
2023/04/15 07:50:07;;;;;;;5.28;3.63;;;;;;;16.03;15.48;100615.19;7341226;19;20039;-76
2023/04/15 07:52:38;;;;;;;8.60;3.33;;;;;;;16.13;15.29;100624.28;7341431;19;20085;-77
2023/04/15 07:57:47;;;;;;;7.18;3.10;;;;;;;15.57;15.33;100608.06;7341541;19;20625;-76
2023/04/15 08:00:12;;;;;;;10.00;3.10;;;;;;;15.44;15.48;100615.28;7340230;19;20018;-75
2023/04/15 08:02:37;;;;;;;8.82;2.83;;;;;;;15.41;15.71;100620.03;7340945;19;20007;-76
2023/04/15 08:05:03;;;;;;;6.20;3.63;;;;;;;15.19;15.73;100623.50;7347156;19;20025;-76
2023/04/15 08:07:30;;;;;;;4.45;3.08;;;;;;;15.45;15.37;100614.31;7347284;19;20010;-75
2023/04/15 08:09:55;;;;;;;5.95;3.05;;;;;;;15.41;15.31;100618.22;7344644;19;20070;-74
2023/04/15 08:12:24;;;;;;;5.50;2.95;;;;;;;15.50;15.26;100622.88;7349528;19;20014;-74
2023/04/15 08:14:51;;;;;;;3.28;2.65;;;;;;;15.40;15.45;100619.19;7346347;19;20014;-75
2023/04/15 08:17:21;;;;;;;4.90;2.92;;;;;;;15.50;15.38;100611.28;7349302;19;20513;-73
2023/04/15 08:19:47;;;;;;;6.85;3.22;;;;;;;15.17;15.47;100609.31;7347164;19;20082;-75
2023/04/15 08:22:11;;;;;;;10.63;3.83;;;;;;;14.68;15.60;100612.09;7351619;19;20013;-74
2023/04/15 08:24:37;;;;;;;11.70;3.40;;;;;;;14.46;16.21;100618.16;7349636;19;20011;-74
2023/04/15 08:27:09;;;;;;;11.05;3.45;;;;;;;14.08;16.02;100613.69;7348063;19;20007;-75
2023/04/15 08:29:35;;;;;;;4.10;2.63;;;;;;;13.90;16.05;100614.09;7355685;19;20022;-74
2023/04/15 08:32:02;;;;;;;7.88;2.90;;;;;;;13.85;15.97;100611.75;7352900;19;20014;-75
2023/04/15 08:34:34;;;;;;;11.25;3.30;;;;;;;13.78;15.96;100610.44;7352899;19;20752;-75
2023/04/15 08:37:06;;;;;;;5.40;2.90;;;;;;;13.87;16.17;100625.06;7354124;19;20386;-74
2023/04/15 08:39:32;;;;;;;3.72;2.95;;;;;;;13.55;16.10;100608.50;7351554;19;20018;-75
2023/04/15 08:42:02;;;;;;;2.33;1.95;;;;;;;13.26;16.08;100614.00;7351558;19;20011;-73
2023/04/15 08:47:12;;;;;;;9.35;3.75;;;;;;;11.88;17.22;100614.91;7352711;19;20021;-72
2023/04/15 08:49:42;;;;;;;11.60;3.67;;;;;;;11.84;16.98;100608.06;7349187;19;20072;-72
2023/04/15 08:52:08;;;;;;;5.07;3.13;;;;;;;11.76;17.02;100602.31;7348201;19;20038;-73
2023/04/15 08:54:48;;;;;;;6.32;2.75;;;;;;;11.83;16.77;100607.19;7346257;19;20014;-74
2023/04/15 08:57:17;;;;;;;5.20;3.28;;;;;;;11.34;16.99;100611.91;7351445;19;20006;-72
2023/04/15 08:59:44;;;;;;;3.08;2.55;;;;;;;11.01;16.92;100592.53;7350747;19;20022;-76
2023/04/15 09:02:10;;;;;;;8.55;4.88;;;;;;;10.77;17.62;100609.00;7351993;19;20017;-70
2023/04/15 09:09:40;;;;;;;8.57;3.95;;;;;;;11.26;17.50;100600.84;7340704;19;20011;-70
2023/04/15 09:12:06;;;;;;;17.17;5.43;;;;;;;11.95;17.28;100603.78;7344999;19;20082;-71
2023/04/15 09:17:04;;;;;;;7.32;3.55;;;;;;;12.75;16.88;100617.44;7350250;19;20078;-69
2023/04/15 09:19:33;;;;;;;7.55;3.05;;;;;;;13.01;16.44;100612.06;7346959;19;20014;-70
2023/04/15 09:21:58;;;;;;;8.43;3.40;;;;;;;12.87;16.14;100605.91;7345932;19;20082;-75
2023/04/15 09:24:38;;;;;;;8.60;3.92;;;;;;;12.75;16.46;100604.06;7344317;19;20033;-71
2023/04/15 09:27:05;;;;;;;4.20;2.72;;;;;;;12.47;16.47;100599.63;7344169;19;20003;-70
2023/04/15 09:29:35;;;;;;;9.32;3.45;;;;;;;12.67;16.62;100591.16;7343998;19;20364;-72
2023/04/15 09:32:14;;;;;;;8.55;3.17;;;;;;;13.20;16.57;100586.81;7344639;19;20033;-71
2023/04/15 09:34:48;;;;;;;10.88;3.40;;;;;;;13.17;16.17;100593.22;7342452;19;20035;-69
2023/04/15 09:37:14;;;;;;;4.47;3.15;;;;;;;13.56;16.08;100594.13;7343470;19;20011;-68
2023/04/15 09:39:53;;;;;;;9.00;3.50;;;;;;;13.06;16.34;100609.09;7344113;19;20055;-70
2023/04/15 09:42:23;;;;;;;7.70;3.10;;;;;;;12.71;15.93;100590.88;7349867;19;20011;-69
2023/04/15 09:45:10;;;;;;;6.65;3.10;;;;;;;12.49;16.00;100597.72;7346289;19;20500;-69
2023/04/15 09:47:35;;;;;;;4.28;3.22;;;;;;;12.28;16.07;100594.59;7344599;19;20018;-70
2023/04/15 09:50:01;;;;;;;7.25;4.53;;;;;;;12.79;16.25;100602.88;7343292;19;20017;-70
2023/04/15 09:52:27;;;;;;;4.97;2.83;;;;;;;12.94;16.30;100593.84;7343016;19;20014;-69
2023/04/15 09:54:57;;;;;;;13.73;3.25;;;;;;;13.30;15.87;100598.59;7341818;19;20010;-71
2023/04/15 09:57:33;;;;;;;5.93;3.42;;;;;;;13.56;15.87;100591.44;7343003;19;20085;-70
2023/04/15 10:00:05;;;;;;;6.72;3.28;;;;;;;13.63;15.85;100592.75;7342067;19;20444;-70
2023/04/15 10:02:36;;;;;;;6.97;4.13;;;;;;;13.81;15.67;100595.03;7343757;19;20023;-72
2023/04/15 10:05:08;;;;;;;6.80;3.53;;;;;;;14.20;15.72;100598.53;7342745;19;20022;-73
2023/04/15 10:07:41;;;;;;;5.60;2.92;;;;;;;14.35;15.08;100585.84;7347129;19;20011;-70
2023/04/15 10:10:08;;;;;;;10.43;4.35;;;;;;;14.11;15.27;100588.44;7350238;19;20022;-73
2023/04/15 10:12:40;;;;;;;9.35;3.60;;;;;;;14.65;15.47;100599.78;7355160;19;20079;-71
2023/04/15 10:17:48;;;;;;;8.95;3.95;;;;;;;13.74;15.38;100584.84;7358445;19;20014;-75
2023/04/15 10:20:14;;;;;;;7.00;2.47;;;;;;;13.26;16.04;100595.28;7350031;19;20022;-73
2023/04/15 10:22:41;;;;;;;5.32;2.97;;;;;;;12.39;16.01;100609.94;7347753;19;20489;-71
2023/04/15 10:25:06;;;;;;;5.28;3.20;;;;;;;11.17;16.64;100583.53;7350565;19;20022;-74
2023/04/15 10:30:06;;;;;;;5.68;3.33;;;;;;;10.34;17.42;100593.72;7348217;19;20015;-72
2023/04/15 10:32:37;;;;;;;7.20;3.00;;;;;;;10.53;17.23;100597.91;7352169;19;20022;-71
2023/04/15 10:35:08;;;;;;;8.02;3.50;;;;;;;10.33;17.40;100592.84;7353363;19;20011;-73
2023/04/15 10:37:37;;;;;;;8.88;3.35;;;;;;;9.89;18.00;100597.03;7351801;19;20018;-73
2023/04/15 10:43:02;;;;;;;6.18;2.92;;;;;;;9.61;18.08;100595.81;7349893;19;20357;-71
2023/04/15 10:45:35;;;;;;;5.82;2.70;;;;;;;9.35;18.31;100594.53;7345889;19;20015;-72
2023/04/15 10:48:07;;;;;;;7.03;2.95;;;;;;;9.26;18.48;100594.13;7350297;19;20018;-74
2023/04/15 10:50:34;;;;;;;9.23;3.72;;;;;;;9.24;18.53;100593.34;7348914;19;20025;-76
2023/04/15 10:53:09;;;;;;;8.93;3.38;;;;;;;9.33;18.19;100592.88;7350271;19;20108;-73
2023/04/15 10:55:39;;;;;;;6.22;3.22;;;;;;;9.29;18.34;100580.66;7346415;19;20358;-76
2023/04/15 10:58:10;;;;;;;6.80;3.75;;;;;;;9.27;18.02;100590.50;7346078;19;20003;-74
2023/04/15 11:00:38;;;;;;;4.15;2.65;;;;;;;9.15;18.27;100593.78;7345158;19;20364;-76
2023/04/15 11:03:12;;;;;;;6.22;3.55;;;;;;;9.14;18.23;100594.75;7350527;19;20019;-76
2023/04/15 11:05:40;;;;;;;5.32;2.28;;;;;;;8.90;18.21;100588.88;7359364;19;20046;-74
2023/04/15 11:08:05;;;;;;;7.70;3.40;;;;;;;8.74;18.35;100591.41;7360922;19;20010;-70
2023/04/15 11:10:30;;;;;;;5.82;2.85;;;;;;;8.59;18.84;100592.13;7350769;19;20024;-72
2023/04/15 11:13:02;;;;;;;3.58;2.40;;;;;;;8.79;18.33;100601.81;7345568;19;20010;-74
2023/04/15 11:15:36;;;;;;;4.90;3.17;;;;;;;8.53;18.29;100595.09;7342501;19;20030;-74
2023/04/15 11:18:18;;;;;;;2.03;1.83;;;;;;;8.70;18.33;100579.19;7348570;19;20021;-75
2023/04/15 11:20:58;;;;;;;4.18;2.40;;;;;;;8.65;18.35;100584.75;7343290;19;20018;-71
2023/04/15 11:23:30;;;;;;;5.28;2.53;;;;;;;8.58;18.26;100588.63;7339582;19;20022;-73
2023/04/15 11:25:58;;;;;;;7.88;2.55;;;;;;;8.35;18.92;100591.53;7340338;19;20058;-71
2023/04/15 11:28:29;;;;;;;8.43;3.88;;;;;;;8.18;19.20;100581.66;7343462;19;20018;-69
2023/04/15 11:30:55;;;;;;;8.75;3.25;;;;;;;8.24;19.31;100586.66;7343521;19;20022;-70
2023/04/15 11:33:26;;;;;;;5.47;3.00;;;;;;;8.22;19.45;100583.25;7341534;19;20011;-71
2023/04/15 11:38:25;;;;;;;4.45;2.47;;;;;;;8.37;19.68;100579.88;7341837;19;20021;-71
2023/04/15 11:40:51;;;;;;;6.50;4.50;;;;;;;8.47;19.69;100571.47;7352136;19;20007;-71
2023/04/15 11:43:20;;;;;;;6.85;3.60;;;;;;;8.52;19.88;100570.31;7353865;19;20074;-68
2023/04/15 11:45:51;;;;;;;4.25;3.05;;;;;;;8.69;19.41;100556.22;7354378;19;20009;-67
2023/04/15 11:48:23;;;;;;;6.57;3.47;;;;;;;8.81;19.84;100568.88;7355175;19;20015;-71
2023/04/15 11:50:58;;;;;;;7.70;3.90;;;;;;;8.88;19.33;100559.69;7353401;19;20042;-63
2023/04/15 11:53:36;;;;;;;6.10;3.05;;;;;;;8.95;19.35;100562.88;7350743;19;20043;-64
2023/04/15 11:56:01;;;;;;;8.77;3.63;;;;;;;8.74;19.70;100556.84;7350861;19;20034;-65
2023/04/15 12:01:00;;;;;;;14.45;2.92;;;;;;;8.79;19.56;100553.97;7348351;19;20014;-66
2023/04/15 12:03:44;;;;;;;8.00;3.13;;;;;;;8.90;19.74;100547.19;7350540;19;20018;-65
2023/04/15 12:06:25;;;;;;;8.18;3.22;;;;;;;8.91;19.89;100545.38;7355040;19;20126;-68
2023/04/15 12:09:19;;;;;;;3.72;2.80;;;;;;;9.08;19.53;100550.69;7352718;19;20029;-72
2023/04/15 12:11:47;;;;;;;8.73;3.28;;;;;;;8.95;19.65;100542.47;7362767;19;20006;-68
2023/04/15 12:14:21;;;;;;;7.20;3.50;;;;;;;9.01;19.68;100541.31;7356627;19;20111;-68
2023/04/15 12:16:55;;;;;;;12.23;4.00;;;;;;;8.87;19.98;100547.31;7357793;19;20086;-67
2023/04/15 12:19:34;;;;;;;5.65;2.70;;;;;;;8.95;19.66;100545.13;7352048;19;20014;-68